createdAt,value
2022-10-22T00:02:59.366Z,93448.34
2022-10-22T00:06:02.603Z,93458.53
2022-10-22T00:09:05.818Z,93450.25
2022-10-22T00:12:09.228Z,93450.00
2022-10-22T00:15:12.831Z,93458.19
2022-10-22T00:18:16.307Z,93462.19
2022-10-22T00:21:19.341Z,93462.84
2022-10-22T00:24:22.483Z,93471.06
2022-10-22T00:27:26.036Z,93465.25
2022-10-22T00:30:30.098Z,93466.53
2022-10-22T00:33:33.575Z,93479.16
2022-10-22T00:36:36.677Z,93471.94
2022-10-22T00:39:39.826Z,93482.81
2022-10-22T00:42:43.261Z,93480.41
2022-10-22T00:45:47.597Z,93476.69
2022-10-22T00:48:51.527Z,93467.84
2022-10-22T00:51:54.689Z,93482.34
2022-10-22T00:54:58.557Z,93480.25
2022-10-22T00:58:03.217Z,93467.16
2022-10-22T01:01:10.349Z,93479.78
2022-10-22T01:04:13.644Z,93481.19
2022-10-22T01:07:19.726Z,93485.81
2022-10-22T01:10:37.764Z,93495.91
2022-10-22T01:14:04.053Z,93492.84
2022-10-22T01:20:31.202Z,93498.63
2022-10-22T01:24:08.717Z,93502.44
2022-10-22T01:27:33.415Z,93506.78
2022-10-22T01:30:38.275Z,93508.22
2022-10-22T01:33:41.088Z,93512.06
2022-10-22T01:36:45.527Z,93519.47
2022-10-22T01:39:49.521Z,93527.22
2022-10-22T01:43:06.495Z,93516.50
2022-10-22T01:46:12.615Z,93521.53
2022-10-22T01:49:28.477Z,93510.25
2022-10-22T01:52:34.210Z,93514.25
2022-10-22T01:55:45.779Z,93520.69
2022-10-22T01:59:14.640Z,93510.34
2022-10-22T02:02:45.255Z,93510.50
2022-10-22T02:05:57.649Z,93504.13
2022-10-22T02:09:01.751Z,93505.22
2022-10-22T02:12:07.507Z,93500.28
2022-10-22T02:15:12.886Z,93514.03
2022-10-22T02:18:17.308Z,93506.28
2022-10-22T02:21:20.906Z,93507.06
2022-10-22T02:24:24.823Z,93504.66
2022-10-22T02:27:33.388Z,93509.03
2022-10-22T02:30:39.684Z,93496.94
2022-10-22T02:33:48.516Z,93503.03
2022-10-22T02:36:52.809Z,93501.22
2022-10-22T02:39:57.045Z,93506.63
2022-10-22T02:43:00.200Z,93508.03
2022-10-22T02:46:03.193Z,93503.56
2022-10-22T02:49:06.214Z,93495.25
2022-10-22T02:52:09.319Z,93494.66
2022-10-22T02:55:13.012Z,93497.47
2022-10-22T02:58:16.023Z,93493.38
2022-10-22T03:01:19.053Z,93502.16
2022-10-22T03:04:22.080Z,93501.94
2022-10-22T03:07:25.105Z,93496.66
2022-10-22T03:10:28.184Z,93491.56
2022-10-22T03:13:31.156Z,93495.13
2022-10-22T03:16:34.122Z,93485.00
2022-10-22T03:19:55.347Z,93495.22
2022-10-22T03:22:59.547Z,93492.91
2022-10-22T03:26:02.818Z,93502.31
2022-10-22T03:29:06.086Z,93497.34
2022-10-22T03:32:09.171Z,93504.81
2022-10-22T03:35:12.200Z,93497.84
2022-10-22T03:38:15.718Z,93500.50
2022-10-22T03:41:18.766Z,93503.81
2022-10-22T03:44:23.285Z,93504.00
2022-10-22T03:47:26.348Z,93500.25
2022-10-22T03:50:29.363Z,93501.75
2022-10-22T03:53:32.420Z,93502.09
2022-10-22T03:56:35.527Z,93499.19
2022-10-22T03:59:40.922Z,93497.44
2022-10-22T04:02:43.990Z,93491.72
2022-10-22T04:05:46.967Z,93493.94
2022-10-22T04:08:50.165Z,93492.38
2022-10-22T04:11:53.526Z,93492.75
2022-10-22T04:14:57.069Z,93498.44
2022-10-22T04:18:00.064Z,93491.03
2022-10-22T04:21:04.463Z,93497.84
2022-10-22T04:24:07.606Z,93501.78
2022-10-22T04:27:10.806Z,93500.97
2022-10-22T04:30:14.512Z,93502.91
2022-10-22T04:33:17.638Z,93503.72
2022-10-22T04:36:20.784Z,93491.59
2022-10-22T04:39:23.968Z,93496.09
2022-10-22T04:42:27.126Z,93499.66
2022-10-22T04:45:30.178Z,93503.91
2022-10-22T04:48:33.116Z,93486.75
2022-10-22T04:51:36.271Z,93482.13
2022-10-22T04:54:39.346Z,93489.66
2022-10-22T04:57:42.723Z,93481.50
2022-10-22T05:00:45.991Z,93486.91
2022-10-22T05:03:50.965Z,93471.47
2022-10-22T05:06:53.686Z,93476.94
2022-10-22T05:09:56.876Z,93474.22
2022-10-22T05:13:00.026Z,93477.34
2022-10-22T05:16:03.295Z,93475.97
2022-10-22T05:19:07.961Z,93484.22
2022-10-22T05:22:10.946Z,93482.50
2022-10-22T05:25:14.069Z,93478.19
2022-10-22T05:28:17.094Z,93471.09
2022-10-22T05:31:21.261Z,93479.72
2022-10-22T05:34:24.638Z,93468.16
2022-10-22T05:37:27.677Z,93466.38
2022-10-22T05:40:31.372Z,93471.03
2022-10-22T05:43:35.314Z,93464.81
2022-10-22T05:46:38.457Z,93467.06
2022-10-22T05:49:41.556Z,93456.47
2022-10-22T05:52:44.673Z,93465.53
2022-10-22T05:55:47.680Z,93452.34
2022-10-22T05:58:51.286Z,93456.66
2022-10-22T06:01:54.703Z,93455.47
2022-10-22T06:04:57.837Z,93456.72
2022-10-22T06:08:02.037Z,93453.88
2022-10-22T06:11:06.364Z,93447.00
2022-10-22T06:14:11.295Z,93451.78
2022-10-22T06:17:14.561Z,93460.44
2022-10-22T06:20:18.095Z,93459.72
2022-10-22T06:23:21.274Z,93451.13
2022-10-22T06:26:24.650Z,93443.94
2022-10-22T06:29:27.794Z,93446.47
2022-10-22T06:32:32.229Z,93448.44
2022-10-22T06:35:36.103Z,93445.81
2022-10-22T06:38:39.309Z,93451.69
2022-10-22T06:41:42.710Z,93438.66
2022-10-22T06:44:45.760Z,93443.31
2022-10-22T06:47:49.507Z,93440.69
2022-10-22T06:50:52.501Z,93436.25
2022-10-22T06:53:57.109Z,93440.88
2022-10-22T06:57:00.515Z,93428.50
2022-10-22T07:00:04.282Z,93429.88
2022-10-22T07:03:07.627Z,93431.88
2022-10-22T07:06:12.949Z,93433.25
2022-10-22T07:09:16.124Z,93427.97
2022-10-22T07:12:19.163Z,93426.69
2022-10-22T07:15:22.184Z,93427.97
2022-10-22T07:18:25.271Z,93418.16
2022-10-22T07:21:28.744Z,93427.31
2022-10-22T07:24:31.725Z,93426.69
2022-10-22T07:27:34.812Z,93424.09
2022-10-22T07:30:39.717Z,93431.91
2022-10-22T07:33:42.413Z,93430.06
2022-10-22T07:36:45.519Z,93426.63
2022-10-22T07:39:49.579Z,93431.78
2022-10-22T07:42:52.671Z,93431.72
2022-10-22T07:46:00.168Z,93423.78
2022-10-22T07:49:03.147Z,93435.59
2022-10-22T07:52:08.402Z,93432.28
2022-10-22T07:55:13.586Z,93430.38
2022-10-22T07:58:17.215Z,93438.31
2022-10-22T08:01:20.275Z,93437.63
2022-10-22T08:04:23.309Z,93442.75
2022-10-22T08:10:29.769Z,93433.94
2022-10-22T08:13:32.835Z,93442.22
2022-10-22T08:16:35.833Z,93440.63
2022-10-22T08:19:38.913Z,93435.69
2022-10-22T08:22:41.946Z,93438.94
2022-10-22T08:25:44.940Z,93444.28
2022-10-22T08:28:48.171Z,93449.13
2022-10-22T08:31:51.752Z,93457.91
2022-10-22T08:34:54.753Z,93458.78
2022-10-22T08:37:57.831Z,93462.97
2022-10-22T08:41:16.685Z,93461.84
2022-10-22T08:44:25.799Z,93467.38
2022-10-22T08:48:01.650Z,93459.44
2022-10-22T08:51:05.072Z,93459.72
2022-10-22T08:54:08.101Z,93462.63
2022-10-22T09:00:46.696Z,93466.94
2022-10-22T09:04:00.553Z,93472.34
2022-10-22T09:07:04.908Z,93474.97
2022-10-22T09:10:12.237Z,93479.16
2022-10-22T09:13:20.907Z,93478.19
2022-10-22T09:16:56.884Z,93483.78
2022-10-22T09:20:16.491Z,93486.47
2022-10-22T09:23:40.838Z,93475.94
2022-10-22T09:26:43.908Z,93476.41
2022-10-22T09:29:48.981Z,93480.72
2022-10-22T09:32:57.062Z,93478.66
2022-10-22T09:36:07.544Z,93476.63
2022-10-22T09:39:25.708Z,93476.25
2022-10-22T09:42:28.951Z,93482.50
2022-10-22T09:45:33.249Z,93478.38
2022-10-22T09:48:42.125Z,93487.19
2022-10-22T09:51:51.697Z,93490.94
2022-10-22T09:54:54.799Z,93488.81
2022-10-22T09:58:00.338Z,93485.53
2022-10-22T10:01:03.433Z,93480.25
2022-10-22T10:04:12.573Z,93483.94
2022-10-22T10:07:27.686Z,93487.66
2022-10-22T10:10:42.428Z,93492.97
2022-10-22T10:13:57.396Z,93497.56
2022-10-22T10:17:22.872Z,93502.59
2022-10-22T10:20:41.497Z,93505.19
2022-10-22T10:24:09.657Z,93502.97
2022-10-22T10:27:44.125Z,93501.28
2022-10-22T10:30:56.260Z,93504.22
2022-10-22T10:34:14.784Z,93505.41
2022-10-22T10:37:20.823Z,93509.09
2022-10-22T10:40:41.491Z,93509.41
2022-10-22T10:44:14.924Z,93517.00
2022-10-22T10:47:38.911Z,93515.66
2022-10-22T10:50:55.052Z,93526.53
2022-10-22T10:54:28.501Z,93518.53
2022-10-22T10:57:34.728Z,93524.06
2022-10-22T11:00:58.615Z,93532.31
2022-10-22T11:04:26.378Z,93529.00
2022-10-22T11:07:44.071Z,93533.44
2022-10-22T11:10:50.109Z,93534.63
2022-10-22T11:14:01.068Z,93534.56
2022-10-22T11:17:24.041Z,93525.41
2022-10-22T11:20:40.693Z,93529.97
2022-10-22T11:23:49.973Z,93526.41
2022-10-22T11:26:59.301Z,93529.50
2022-10-22T11:30:13.026Z,93527.41
2022-10-22T11:33:25.691Z,93525.94
2022-10-22T11:39:58.123Z,93528.44
2022-10-22T11:43:12.642Z,93522.78
2022-10-22T11:46:15.634Z,93526.59
2022-10-22T11:49:24.105Z,93526.50
2022-10-22T11:52:32.636Z,93527.84
2022-10-22T11:55:52.141Z,93527.34
2022-10-22T11:58:56.385Z,93523.50
2022-10-22T12:01:59.561Z,93521.44
2022-10-22T12:05:39.909Z,93520.69
2022-10-22T12:08:55.086Z,93523.78
2022-10-22T12:12:16.014Z,93530.94
2022-10-22T12:15:26.346Z,93527.69
2022-10-22T12:18:40.754Z,93524.13
2022-10-22T12:21:49.186Z,93520.56
2022-10-22T12:25:01.399Z,93524.72
2022-10-22T12:28:05.244Z,93536.16
2022-10-22T12:31:16.973Z,93525.47
2022-10-22T12:34:23.682Z,93533.09
2022-10-22T12:37:27.942Z,93525.22
2022-10-22T12:40:35.894Z,93525.03
2022-10-22T12:43:40.309Z,93524.03
2022-10-22T12:46:46.229Z,93527.28
2022-10-22T12:49:51.202Z,93530.63
2022-10-22T12:52:56.289Z,93521.38
2022-10-22T12:56:04.692Z,93523.97
2022-10-22T12:59:25.812Z,93538.78
2022-10-22T13:02:29.963Z,93532.13
2022-10-22T13:05:39.568Z,93526.94
2022-10-22T13:08:42.552Z,93534.69
2022-10-22T13:12:02.240Z,93533.94
2022-10-22T13:15:21.703Z,93531.34
2022-10-22T13:18:26.730Z,93546.16
2022-10-22T13:21:34.878Z,93545.00
2022-10-22T13:24:50.802Z,93545.09
2022-10-22T13:28:02.262Z,93548.16
2022-10-22T13:31:18.944Z,93544.25
2022-10-22T13:34:24.963Z,93552.59
2022-10-22T13:37:30.727Z,93552.22
2022-10-22T13:40:33.917Z,93548.16
2022-10-22T13:43:37.761Z,93554.13
2022-10-22T13:46:44.078Z,93554.25
2022-10-22T13:49:48.241Z,93556.09
2022-10-22T13:52:56.847Z,93554.06
2022-10-22T13:55:59.903Z,93552.34
2022-10-22T13:59:02.910Z,93557.66
2022-10-22T14:02:13.821Z,93558.91
2022-10-22T14:05:18.645Z,93556.25
2022-10-22T14:08:22.254Z,93556.53
2022-10-22T14:11:27.939Z,93549.84
2022-10-22T14:14:30.969Z,93554.41
2022-10-22T14:17:34.124Z,93563.31
2022-10-22T14:20:38.691Z,93567.63
2022-10-22T14:23:43.222Z,93570.78
2022-10-22T14:26:46.184Z,93567.94
2022-10-22T14:29:49.409Z,93574.94
2022-10-22T14:32:53.326Z,93571.31
2022-10-22T14:35:56.500Z,93575.31
2022-10-22T14:39:04.761Z,93576.66
2022-10-22T14:42:11.765Z,93567.59
2022-10-22T14:45:27.070Z,93566.09
2022-10-22T14:48:30.090Z,93570.13
2022-10-22T14:51:33.108Z,93560.50
2022-10-22T14:54:36.127Z,93565.63
2022-10-22T14:57:42.238Z,93569.34
2022-10-22T15:00:45.573Z,93568.09
2022-10-22T15:03:49.071Z,93565.50
2022-10-22T15:06:56.797Z,93559.31
2022-10-22T15:09:59.945Z,93564.72
2022-10-22T15:13:02.970Z,93564.84
2022-10-22T15:16:10.981Z,93562.31
2022-10-22T15:19:14.626Z,93565.00
2022-10-22T15:22:18.627Z,93561.66
2022-10-22T15:25:22.278Z,93553.84
2022-10-22T15:28:26.643Z,93564.44
2022-10-22T15:31:51.435Z,93564.16
2022-10-22T15:34:55.321Z,93558.16
2022-10-22T15:37:58.470Z,93563.63
2022-10-22T15:41:05.355Z,93561.53
2022-10-22T15:44:09.511Z,93564.75
2022-10-22T15:47:12.536Z,93560.19
2022-10-22T15:50:15.630Z,93563.25
2022-10-22T15:53:18.739Z,93559.53
2022-10-22T15:56:22.747Z,93560.28
2022-10-22T15:59:26.272Z,93567.22
2022-10-22T16:02:29.429Z,93563.75
2022-10-22T16:05:32.579Z,93563.75
2022-10-22T16:08:36.729Z,93561.97
2022-10-22T16:11:40.893Z,93558.59
2022-10-22T16:14:43.923Z,93568.56
2022-10-22T16:17:46.914Z,93569.34
2022-10-22T16:20:49.925Z,93565.03
2022-10-22T16:23:53.586Z,93556.25
2022-10-22T16:26:57.985Z,93562.25
2022-10-22T16:30:00.872Z,93547.84
2022-10-22T16:33:05.579Z,93544.78
2022-10-22T16:36:12.215Z,93532.75
2022-10-22T16:39:17.050Z,93534.78
2022-10-22T16:42:20.078Z,93534.72
2022-10-22T16:45:24.662Z,93536.72
2022-10-22T16:48:27.730Z,93539.59
2022-10-22T16:51:30.815Z,93537.09
2022-10-22T16:54:33.849Z,93533.97
2022-10-22T16:57:36.847Z,93538.25
2022-10-22T17:00:39.913Z,93528.03
2022-10-22T17:03:43.146Z,93531.66
2022-10-22T17:06:46.089Z,93522.59
2022-10-22T17:09:49.085Z,93529.28
2022-10-22T17:12:52.105Z,93527.47
2022-10-22T17:16:02.912Z,93523.19
2022-10-22T17:19:06.270Z,93525.00
2022-10-22T17:22:09.309Z,93522.50
2022-10-22T17:25:33.524Z,93521.31
2022-10-22T17:28:37.301Z,93520.06
2022-10-22T17:31:41.397Z,93525.22
2022-10-22T17:34:45.757Z,93524.66
2022-10-22T17:37:48.905Z,93522.50
2022-10-22T17:40:52.058Z,93517.38
2022-10-22T17:43:56.352Z,93515.56
2022-10-22T17:47:00.955Z,93510.69
2022-10-22T17:50:04.189Z,93511.19
2022-10-22T17:53:07.236Z,93512.59
2022-10-22T17:56:13.149Z,93502.88
2022-10-22T17:59:17.680Z,93509.84
2022-10-22T18:02:20.719Z,93505.53
2022-10-22T18:05:25.634Z,93507.06
2022-10-22T18:08:28.637Z,93503.25
2022-10-22T18:11:33.170Z,93496.28
2022-10-22T18:14:36.155Z,93496.28
2022-10-22T18:17:39.785Z,93507.47
2022-10-22T18:20:42.896Z,93512.22
2022-10-22T18:23:46.833Z,93501.63
2022-10-22T18:26:49.860Z,93503.06
2022-10-22T18:29:52.870Z,93503.00
2022-10-22T18:32:55.827Z,93506.41
2022-10-22T18:36:05.320Z,93503.66
2022-10-22T18:39:08.512Z,93498.59
2022-10-22T18:42:13.008Z,93503.25
2022-10-22T18:45:16.140Z,93507.16
2022-10-22T18:48:25.457Z,93508.22
2022-10-22T18:51:31.457Z,93511.63
2022-10-22T18:54:34.625Z,93509.66
2022-10-22T18:57:37.591Z,93518.44
2022-10-22T19:00:40.730Z,93503.16
2022-10-22T19:03:43.922Z,93514.97
2022-10-22T19:06:47.024Z,93509.66
2022-10-22T19:09:50.131Z,93518.03
2022-10-22T19:12:53.060Z,93504.13
2022-10-22T19:16:02.334Z,93506.22
2022-10-22T19:19:07.573Z,93492.38
2022-10-22T19:22:11.970Z,93498.97
2022-10-22T19:25:14.912Z,93499.63
2022-10-22T19:28:17.911Z,93496.97
2022-10-22T19:31:22.793Z,93493.44
2022-10-22T19:34:25.891Z,93496.13
2022-10-22T19:37:29.035Z,93493.16
2022-10-22T19:40:33.467Z,93491.50
2022-10-22T19:43:37.768Z,93489.16
2022-10-22T19:46:40.944Z,93486.94
2022-10-22T19:49:43.952Z,93487.88
2022-10-22T19:52:46.902Z,93480.88
2022-10-22T19:55:49.882Z,93476.81
2022-10-22T19:58:53.363Z,93474.63
2022-10-22T20:01:56.379Z,93481.78
2022-10-22T20:04:59.405Z,93473.28
2022-10-22T20:08:02.816Z,93476.44
2022-10-22T20:11:11.277Z,93477.22
2022-10-22T20:14:15.245Z,93476.06
2022-10-22T20:17:18.227Z,93474.94
2022-10-22T20:20:26.289Z,93471.56
2022-10-22T20:23:29.551Z,93468.44
2022-10-22T20:26:32.539Z,93474.16
2022-10-22T20:29:35.492Z,93462.44
2022-10-22T20:32:39.907Z,93470.63
2022-10-22T20:35:43.474Z,93471.97
2022-10-22T20:38:48.576Z,93467.63
2022-10-22T20:41:51.988Z,93461.84
2022-10-22T20:44:54.899Z,93460.81
2022-10-22T20:48:02.602Z,93460.28
2022-10-22T20:51:06.164Z,93455.63
2022-10-22T20:54:10.060Z,93452.38
2022-10-22T20:57:14.135Z,93457.66
2022-10-22T21:00:17.666Z,93450.59
2022-10-22T21:03:21.957Z,93453.81
2022-10-22T21:06:24.960Z,93452.34
2022-10-22T21:09:28.631Z,93446.88
2022-10-22T21:12:31.588Z,93446.34
2022-10-22T21:15:34.634Z,93448.47
2022-10-22T21:18:38.107Z,93445.06
2022-10-22T21:21:41.032Z,93450.59
2022-10-22T21:24:44.070Z,93449.56
2022-10-22T21:27:47.106Z,93459.78
2022-10-22T21:30:50.084Z,93450.50
2022-10-22T21:33:54.358Z,93452.88
2022-10-22T21:36:57.412Z,93459.72
2022-10-22T21:40:01.265Z,93456.66
2022-10-22T21:43:04.305Z,93459.44
2022-10-22T21:46:21.652Z,93453.53
2022-10-22T21:49:24.618Z,93452.56
2022-10-22T21:52:27.640Z,93446.84
2022-10-22T21:55:35.574Z,93456.47
2022-10-22T21:58:38.622Z,93457.81
2022-10-22T22:01:41.730Z,93450.75
2022-10-22T22:04:44.783Z,93455.25
2022-10-22T22:07:47.847Z,93454.19
2022-10-22T22:10:52.607Z,93450.81
2022-10-22T22:13:56.045Z,93455.69
2022-10-22T22:16:58.963Z,93448.41
2022-10-22T22:20:03.390Z,93448.59
2022-10-22T22:23:06.476Z,93451.06
2022-10-22T22:26:10.410Z,93451.22
2022-10-22T22:29:13.365Z,93443.19
2022-10-22T22:32:16.482Z,93443.38
2022-10-22T22:35:19.891Z,93446.84
2022-10-22T22:38:22.869Z,93447.69
2022-10-22T22:41:25.918Z,93442.91
2022-10-22T22:44:28.957Z,93433.75
2022-10-22T22:47:31.988Z,93439.13
2022-10-22T22:50:36.383Z,93452.47
2022-10-22T22:53:39.435Z,93454.88
2022-10-22T22:56:42.417Z,93463.03
2022-10-22T22:59:45.405Z,93466.97
2022-10-22T23:02:48.399Z,93471.31
2022-10-22T23:05:51.426Z,93463.41
2022-10-22T23:08:55.236Z,93466.31
2022-10-22T23:11:58.200Z,93468.63
2022-10-22T23:15:02.686Z,93471.56
2022-10-22T23:18:05.737Z,93474.59
2022-10-22T23:21:14.100Z,93485.44
2022-10-22T23:24:19.755Z,93487.97
2022-10-22T23:27:22.739Z,93478.78
2022-10-22T23:30:25.735Z,93486.38
2022-10-22T23:33:28.719Z,93484.63
2022-10-22T23:36:31.715Z,93483.88
2022-10-22T23:39:34.809Z,93481.41
2022-10-22T23:45:45.648Z,93475.34
2022-10-22T23:48:49.671Z,93465.53
2022-10-22T23:51:52.613Z,93468.81
2022-10-22T23:54:55.608Z,93471.63
2022-10-22T23:57:58.601Z,93466.13
